Terminal Aerodrome Forecast
Issued by NWS Denver/Boulder, CO

Home | Current Version | Previous Version | Text Only | Print | Product List | Glossary On
Versions: 1 2 3 4 5 6 7 8 9 10 11 12 13 14 15 16 17 18 19 20 21 22 23 24 25 26 27 28 29 30 31 32 33 34 35 36 37 38 39
000
FTUS45 KBOU 241516 AAC
TAFDEN
TAF AMD
KDEN 241516Z 2415/2518 01009KT P6SM VCSH BKN014 OVC020
     FM241700 01013KT P6SM VCSH BKN020 OVC035
      TEMPO 2418/2422 -SHRA BKN017
     FM242300 02012KT P6SM BKN030 BKN100
     FM250200 05007KT P6SM BKN030 OVC050
     FM251200 26005KT P6SM FEW030 SCT040
     FM251600 35008KT P6SM SKC=

USA.gov is the U.S. government's official web portal to all federal, state and local government web resources and services.